Country
Station

 

Weather  for  Waterkloof  -  South Africa    South Africa

  
34 °C (93 °F)
    
 
 

Current METAR for Waterkloof is :

FAWK 211300Z AUTO 33010KT //// // ////// 34/05 Q1017

 

This is a report for Waterkloof - South Africa.
 
The report was made 26 hours and 44 minutes ago, at 13:00 UTC .
The wind was blowing at a speed of 5.1 meters per second (11.5 miles per hour) from north/northwest (330°).
 
The temperature was 34 °C (93 °F), with a dew-point at 5 °C (41 °F).
The temperature felt like 32 °C (89 °F).
 
The atmospheric pressure was 1017 hPa (30.03 inHg).
The relative humidity was 16.4%.
 

 
 
 
 

Country :   A   B   C   D   E   F   G   H   I   J   K   L   M   N   O   P   Q   R   S   T   U   V   W   Y   Z

 

Site Info  |  Disclaimer  |  Credits  |  Privacy
Contact us  |  Add to favorites
© 2013-2017 METARs - All rights reserved